Chama, NM

11:48 AM MDT on July 26, 2014 (GMT -0600)
Pagosa Springs (KPSO) Elev 7657 ft | 37.29 °N, 107.06 °W | Change Station

Current weather conditions updated 1 hour ago

Clear
Clear
77 °F
Feels Like 77 °F
N
0
Wind Variable Wind from North

Today is forecast to be Cooler than yesterday. Thunderstorms early tonight.

Today
High -- | Low -- °F
--% Chance of Precip.
Yesterday
High -- | Low -- °F
Precip. -- in
6:07 AM 8:18 PM
Waning Crescent, 0% visible
Pressure 30.41 in
Visibility 10.0 miles
Clouds Clear
Dew Point 43 °F
Humidity 29%
Rainfall 0.00 in
Snow Depth Not available.
UV 8 out of 12
Pollen 7.10 out of 12
Air Quality Not available.
Flu Activity Not available.
METAR KPSO 261615Z AUTO 00000KT 10SM CLR 25/06 A3041 RMK AO2 T02510059

More Conditions Fewer Conditions

Pressure 30.41 in
Visibility 10.0 miles
Clouds Clear
Dew Point 43 °F
Humidity 29%
Rainfall 0.00 in
Snow Depth Not available.
UV 8 out of 12
Pollen 7.10 out of 12
Air Quality Not available.
Flu Activity Not available.
METAR KPSO 261615Z AUTO 00000KT 10SM CLR 25/06 A3041 RMK AO2 T02510059

More Conditions Fewer Conditions

10-Day Weather Forecast

Almanac

Astronomy

Jul. 26, 2014 Rise Set
Actual Time 6:07 AM MDT 8:18 PM MDT
Civil Twilight 5:38 AM MDT 8:47 PM MDT
Nautical Twilight 5:02 AM MDT 9:22 PM MDT
Astronomical Twilight 4:23 AM MDT 10:01 PM MDT
Moon 6:00 AM MDT 7:57 PM MDT
Length of Visible Light 15h 09m
Length of Day
14h 11m
Tomorrow will be 1m 36s shorter.
Waning Crescent, 0% of the Moon is Illuminated
Today
Waning Crescent
Jul 26
New
Aug 3
First Quarter
Aug 10
Full
Aug 17
Last Quarter

Today's Extremes

State Highs State Lows

Community

WunderPhotos

Upload Photos

1,737,643 photos uploaded!

Nearby

Snow Depth

Station Depth Elevation
North Costilla 0 in 10600 ft
Santa Fe 1 in 11445 ft
Wesner Springs 1 in 11120 ft
Sierra Blanca 0 in 10280 ft
Silver Creek Divide 0 in 9000 ft

Earthquake Activity

City Distance Mag. Time & Date
No recent earthquake activity has been reported nearby.
Minimum magnitude displayed is 2.5.

Coastal Water Temperatures

Place Temperature
No Stations Reporting

Nearby Weather Stations

Station Location Temp. Heat Index Dew Point Humidity Wind Precip. Elev Updated Type
HADS NAVAJO RIVER AT BANDED PEAK RANC CO, Chromo, CO 78 °F 76 °F - - North  at  - 0.00 in / hr 7939 ft 10:45 AM MDT MADIS
RAWS STONE LAKE NM, Dulce, NM 82 °F 81 °F 49 °F 32% WSW  at  4 mph 0.00 in / hr 7385 ft 10:33 AM MDT MADIS
RAWS DULCE #2 NM, Dulce, NM 83 °F 81 °F 49 °F 31% SSE  at  1 mph 0.00 in / hr 6729 ft 10:28 AM MDT MADIS
RAWS SJF2 PAGOSA PORTABLE CO, Chromo, CO 74 °F 77 °F 49 °F 41% NW  at  3 mph 0.00 in / hr 9160 ft 10:49 AM MDT MADIS

Show More Stations Show Fewer Stations